Time;durP1;ratioP1;P1;durP2;ratioP2;P2;SDS_P1;SDS_P2;PMS_P1;PMS_P2;Temp;Humidity;BMP_temperature;BMP_pressure;BME280_temperature;BME280_humidity;BME280_pressure;Samples;Min_cycle;Max_cycle;Signal;HPM_P1;HPM_P2
2023/10/10 00:24:51;;;;;;;26.40;17.40;;;;;;;14.26;100.00;101450.22;4828260;29;20066;-81
2023/10/10 00:32:16;;;;;;;;;;;;;;;;;;;;;
2023/10/10 00:35:23;;;;;;;27.25;17.50;;;;;;;14.22;100.00;101439.16;4931540;29;20071;-81
2023/10/10 00:46:47;;;;;;;26.30;18.90;;;;;;;14.10;100.00;101447.53;5087448;28;20037;-80
2023/10/10 00:49:53;;;;;;;28.30;18.45;;;;;;;14.00;100.00;101431.88;5077042;28;20071;-81
2023/10/10 00:58:35;;;;;;;27.92;18.48;;;;;;;14.03;100.00;101421.03;5066879;28;20519;-84
2023/10/10 01:08:45;;;;;;;25.70;19.98;;;;;;;14.00;100.00;101405.56;4993907;28;20058;-83
2023/10/10 01:15:34;;;;;;;29.63;20.38;;;;;;;13.92;100.00;101390.56;4981008;28;20082;-80
2023/10/10 01:22:33;;;;;;;;;;;;;;;;;;;;;
2023/10/10 01:38:33;;;;;;;30.65;21.63;;;;;;;13.74;100.00;101379.31;4822495;26;20056;-83
2023/10/10 02:09:25;;;;;;;;;;;;;;;;;;;;;
2023/10/10 02:12:26;;;;;;;28.48;19.85;;;;;;;13.34;100.00;101350.19;4991237;28;20078;-82
2023/10/10 02:18:44;;;;;;;31.85;21.23;;;;;;;13.60;100.00;101375.50;5015115;22;20558;-81
2023/10/10 02:21:16;;;;;;;31.40;19.85;;;;;;;13.64;100.00;101388.31;5054789;28;20071;-79
2023/10/10 02:23:44;;;;;;;30.15;20.50;;;;;;;13.60;100.00;101383.38;5055006;28;20056;-80
2023/10/10 02:26:28;;;;;;;29.40;20.27;;;;;;;13.56;100.00;101368.91;5055545;28;20099;-81
2023/10/10 02:29:16;;;;;;;27.85;20.02;;;;;;;13.53;100.00;101363.94;5048587;28;20049;-82
2023/10/10 02:31:46;;;;;;;27.67;19.35;;;;;;;13.43;100.00;101363.22;5045168;28;20081;-80
2023/10/10 02:34:13;;;;;;;31.60;19.95;;;;;;;13.47;100.00;101359.31;5055206;28;20068;-81
2023/10/10 02:36:41;;;;;;;28.35;20.02;;;;;;;13.46;100.00;101364.72;5048510;28;20068;-81
2023/10/10 02:39:27;;;;;;;27.58;19.20;;;;;;;13.32;100.00;101363.50;5045497;28;20049;-82
2023/10/10 02:41:59;;;;;;;27.27;18.25;;;;;;;13.28;100.00;101370.88;5044712;28;20313;-83
2023/10/10 02:44:38;;;;;;;28.15;19.38;;;;;;;13.15;100.00;101361.75;5049467;28;20049;-84
2023/10/10 02:47:05;;;;;;;32.33;20.23;;;;;;;13.13;100.00;101368.97;5045298;28;20053;-81
2023/10/10 02:49:37;;;;;;;28.33;21.13;;;;;;;13.14;100.00;101370.59;5049955;28;20072;-81
2023/10/10 02:52:06;;;;;;;26.00;19.65;;;;;;;13.13;100.00;101368.97;5047322;28;20072;-81
2023/10/10 02:54:34;;;;;;;32.78;21.20;;;;;;;13.13;100.00;101374.22;5041964;28;20053;-82
2023/10/10 02:57:26;;;;;;;34.20;20.52;;;;;;;13.12;100.00;101370.75;5049847;28;20045;-82
2023/10/10 02:59:59;;;;;;;31.52;22.13;;;;;;;13.14;100.00;101373.22;5052806;28;20049;-83
2023/10/10 03:02:30;;;;;;;32.55;20.85;;;;;;;13.25;100.00;101380.88;5050643;28;20124;-83
2023/10/10 03:05:07;;;;;;;29.50;20.30;;;;;;;13.20;100.00;101367.41;5048212;28;20055;-83
2023/10/10 03:07:35;;;;;;;28.13;19.17;;;;;;;13.10;100.00;101370.09;5040792;28;20111;-83
2023/10/10 03:10:22;;;;;;;30.70;21.10;;;;;;;13.09;100.00;101371.06;5052645;28;20068;-82
2023/10/10 03:12:51;;;;;;;27.40;19.70;;;;;;;12.97;100.00;101356.53;5047241;28;20057;-83
2023/10/10 03:15:31;;;;;;;31.98;20.63;;;;;;;13.08;100.00;101373.84;5046006;28;20502;-83
2023/10/10 03:20:50;;;;;;;28.45;18.73;;;;;;;13.05;100.00;101361.84;5031077;28;20041;-83
2023/10/10 03:23:31;;;;;;;27.60;17.88;;;;;;;13.07;100.00;101370.41;5051115;28;20064;-83
2023/10/10 03:26:04;;;;;;;25.77;17.70;;;;;;;12.96;100.00;101366.22;5052433;28;20108;-82
2023/10/10 03:28:34;;;;;;;22.98;16.70;;;;;;;12.92;100.00;101367.50;5045906;28;20045;-82
2023/10/10 03:31:08;;;;;;;24.02;15.68;;;;;;;12.88;100.00;101366.16;5046697;28;20680;-82
2023/10/10 03:33:36;;;;;;;24.27;15.75;;;;;;;12.94;100.00;101368.16;5048017;28;20396;-82
2023/10/10 03:36:30;;;;;;;25.23;16.23;;;;;;;12.95;100.00;101363.72;5050191;28;20049;-82
2023/10/10 05:23:34;;;;;;;20.02;13.00;;;;;;;12.69;100.00;101340.09;5045662;28;20067;-82
2023/10/10 05:26:05;;;;;;;30.13;13.57;;;;;;;12.74;100.00;101348.34;5042743;28;20053;-84
2023/10/10 05:28:32;;;;;;;20.48;12.70;;;;;;;12.69;100.00;101340.09;5054489;28;20507;-83
2023/10/10 05:31:02;;;;;;;22.60;12.20;;;;;;;12.68;100.00;101348.13;5061485;28;20052;-83
2023/10/10 05:33:30;;;;;;;18.88;12.50;;;;;;;12.68;100.00;101346.31;5059529;28;20052;-83
2023/10/10 05:36:06;;;;;;;19.17;12.23;;;;;;;12.69;100.00;101344.50;5050766;28;20065;-84
2023/10/10 05:38:39;;;;;;;17.92;11.75;;;;;;;12.56;100.00;101344.91;5055169;28;20053;-83
2023/10/10 05:41:10;;;;;;;20.50;12.90;;;;;;;12.54;100.00;101337.16;5046019;28;20085;-83
2023/10/10 05:43:37;;;;;;;18.98;11.70;;;;;;;12.60;100.00;101341.81;5045637;28;20063;-83
2023/10/10 05:46:04;;;;;;;20.48;12.32;;;;;;;12.60;100.00;101341.00;5062855;28;20079;-83
2023/10/10 05:48:32;;;;;;;21.08;13.27;;;;;;;12.59;100.00;101329.66;5055015;28;20072;-82
2023/10/10 05:50:59;;;;;;;16.77;11.95;;;;;;;12.54;100.00;101341.59;5046439;28;20060;-83
2023/10/10 05:53:26;;;;;;;21.60;12.32;;;;;;;12.60;100.00;101343.63;5054130;28;20193;-81
2023/10/10 05:55:58;;;;;;;19.52;12.52;;;;;;;12.62;100.00;101344.28;5062935;28;20057;-81
2023/10/10 05:58:26;;;;;;;19.25;11.82;;;;;;;12.65;100.00;101346.63;5062071;28;20053;-81
2023/10/10 06:00:54;;;;;;;21.20;12.20;;;;;;;12.69;100.00;101337.47;5064041;28;20053;-82
2023/10/10 06:03:22;;;;;;;18.48;11.73;;;;;;;12.54;100.00;101331.91;5056611;28;20049;-82
2023/10/10 06:05:49;;;;;;;20.63;12.13;;;;;;;12.58;100.00;101340.31;5064211;28;20464;-83
2023/10/10 06:08:17;;;;;;;21.65;11.77;;;;;;;12.55;100.00;101343.25;5062874;28;20045;-83
2023/10/10 06:10:44;;;;;;;18.55;12.73;;;;;;;12.56;100.00;101337.84;5061770;28;20064;-83
2023/10/10 06:13:11;;;;;;;18.58;11.82;;;;;;;12.61;100.00;101337.38;5055840;28;20057;-83
2023/10/10 06:15:39;;;;;;;17.17;12.32;;;;;;;12.69;100.00;101337.47;5056210;28;20083;-82
2023/10/10 06:18:15;;;;;;;17.38;12.00;;;;;;;12.64;100.00;101337.09;5061629;28;20498;-80
2023/10/10 06:20:43;;;;;;;18.73;11.77;;;;;;;12.80;100.00;101337.19;5062595;28;20088;-83
2023/10/10 06:23:11;;;;;;;19.38;11.88;;;;;;;12.81;100.00;101328.34;5046430;28;20077;-82
2023/10/10 06:25:38;;;;;;;22.80;12.55;;;;;;;12.76;100.00;101324.53;5060674;28;20080;-80
2023/10/10 06:28:06;;;;;;;18.73;11.98;;;;;;;12.88;100.00;101329.38;5061605;28;20492;-81
2023/10/10 06:30:36;;;;;;;18.27;11.98;;;;;;;12.98;100.00;101334.53;5062172;28;20067;-81
2023/10/10 06:33:15;;;;;;;22.08;11.82;;;;;;;13.09;100.00;101333.47;5062011;28;20051;-81
2023/10/10 06:35:51;;;;;;;22.52;12.43;;;;;;;13.21;100.00;101327.00;5055359;28;20057;-81
2023/10/10 06:38:23;;;;;;;19.38;11.30;;;;;;;13.33;100.00;101330.16;5055987;28;20129;-82
2023/10/10 06:40:53;;;;;;;16.75;11.50;;;;;;;13.15;100.00;101330.22;5061878;28;20083;-81
2023/10/10 06:43:20;;;;;;;17.70;11.27;;;;;;;13.28;100.00;101328.81;5050829;28;20055;-82
2023/10/10 06:45:54;;;;;;;22.85;12.77;;;;;;;13.39;100.00;101327.72;5063338;28;20079;-80
2023/10/10 06:48:22;;;;;;;26.27;12.18;;;;;;;13.50;100.00;101324.81;5043936;28;20155;-82
2023/10/10 06:50:50;;;;;;;18.73;11.70;;;;;;;13.71;100.00;101307.78;5041769;28;20069;-81
2023/10/10 06:53:34;;;;;;;19.48;11.80;;;;;;;13.69;100.00;101302.72;5040071;28;20080;-81
2023/10/10 06:56:14;;;;;;;20.63;12.23;;;;;;;13.92;100.00;101300.28;5041213;28;20104;-82
2023/10/10 06:58:43;;;;;;;15.43;11.32;;;;;;;14.21;100.00;101298.00;5061960;28;20060;-82
2023/10/10 07:01:11;;;;;;;21.83;12.32;;;;;;;14.06;100.00;101299.66;5061148;28;20525;-82
2023/10/10 07:03:46;;;;;;;19.48;11.40;;;;;;;14.36;100.00;101303.47;5058186;28;20045;-81
2023/10/10 07:06:13;;;;;;;19.55;11.48;;;;;;;14.46;100.00;101305.97;5051190;28;20064;-81
2023/10/10 07:08:39;;;;;;;18.98;11.07;;;;;;;14.27;100.00;101297.38;5049073;28;20053;-81
2023/10/10 07:11:09;;;;;;;17.50;11.02;;;;;;;14.68;100.00;101313.19;5050359;28;20124;-81
2023/10/10 07:13:36;;;;;;;20.83;11.30;;;;;;;14.87;100.00;101304.13;5042675;28;20060;-81
2023/10/10 07:16:03;;;;;;;19.25;11.27;;;;;;;14.84;100.00;101304.44;5041754;28;20166;-81
2023/10/10 07:18:30;;;;;;;18.00;11.05;;;;;;;14.98;100.00;101303.75;5041138;28;20092;-80
2023/10/10 07:21:06;;;;;;;20.38;12.32;;;;;;;15.00;100.00;101298.31;5048374;28;20045;-81
2023/10/10 07:23:53;;;;;;;17.08;11.40;;;;;;;14.87;100.00;101302.28;5052042;28;20071;-81
2023/10/10 07:26:20;;;;;;;18.88;11.77;;;;;;;15.10;100.00;101293.69;5050078;28;20131;-81
2023/10/10 07:28:52;;;;;;;18.63;11.15;;;;;;;14.90;100.00;101301.13;5046259;28;20049;-81
2023/10/10 07:31:20;;;;;;;21.30;11.82;;;;;;;15.31;100.00;101295.75;5062374;28;20049;-81
2023/10/10 07:33:55;;;;;;;20.05;11.13;;;;;;;15.17;100.00;101289.34;5041278;28;20108;-81
2023/10/10 07:36:27;;;;;;;18.40;11.38;;;;;;;15.58;100.00;101277.69;5059616;28;20136;-82
2023/10/10 07:39:17;;;;;;;22.45;11.88;;;;;;;15.62;99.50;101288.69;5060407;28;20091;-82
2023/10/10 07:41:45;;;;;;;21.00;10.95;;;;;;;16.20;98.18;101282.88;5061054;28;20068;-82
2023/10/10 07:44:12;;;;;;;18.40;11.05;;;;;;;16.05;97.09;101274.13;5059783;28;20110;-82
2023/10/10 07:47:07;;;;;;;15.57;10.68;;;;;;;16.16;96.36;101265.75;5053540;28;20503;-82
2023/10/10 07:49:27;;;;;;;17.65;10.75;;;;;;;15.77;96.60;101259.78;5051838;28;20059;-80
2023/10/10 07:51:55;;;;;;;18.30;11.10;;;;;;;16.07;97.11;101277.38;5059072;28;20100;-82
2023/10/10 07:54:38;;;;;;;16.10;10.88;;;;;;;16.24;97.19;101278.91;5051981;28;20476;-82
2023/10/10 07:57:07;;;;;;;17.15;11.38;;;;;;;16.26;96.30;101270.81;5060345;28;20059;-82
2023/10/10 07:59:36;;;;;;;17.70;11.13;;;;;;;16.39;96.08;101272.84;5060712;28;20053;-82
2023/10/10 08:02:20;;;;;;;18.33;11.23;;;;;;;16.33;95.83;101271.72;5060870;28;20124;-81
2023/10/10 08:04:49;;;;;;;16.50;11.07;;;;;;;16.56;94.85;101271.69;5060188;28;20045;-83
2023/10/10 08:07:18;;;;;;;17.23;11.07;;;;;;;16.61;94.11;101258.75;5053587;28;20072;-85
2023/10/10 08:09:46;;;;;;;20.55;11.73;;;;;;;17.07;93.21;101253.34;5064360;28;20107;-83
2023/10/10 08:12:13;;;;;;;21.95;11.63;;;;;;;17.24;91.45;101249.50;5060716;28;20051;-84
2023/10/10 08:14:40;;;;;;;16.98;10.63;;;;;;;17.79;89.58;101237.53;5051853;28;20087;-83
2023/10/10 08:17:18;;;;;;;17.40;11.00;;;;;;;17.98;88.24;101228.94;5059861;28;20060;-83
2023/10/10 08:19:51;;;;;;;23.25;10.43;;;;;;;17.63;88.27;101227.13;5094414;23;20045;-82
2023/10/10 08:22:25;;;;;;;18.98;10.68;;;;;;;17.76;89.24;101237.91;5084406;28;20636;-82
2023/10/10 08:24:52;;;;;;;16.45;11.10;;;;;;;17.79;88.96;101237.53;5077445;28;20502;-78
2023/10/10 08:27:18;;;;;;;18.67;10.70;;;;;;;18.00;88.00;101221.63;5074123;28;20062;-80
2023/10/10 08:29:47;;;;;;;19.95;11.43;;;;;;;18.08;88.05;101229.44;5061140;28;20064;-79
2023/10/10 08:32:13;;;;;;;21.23;12.25;;;;;;;18.04;87.78;101225.53;5057670;28;20515;-79
2023/10/10 08:34:42;;;;;;;15.98;11.10;;;;;;;18.63;87.40;101240.28;5055774;28;20083;-79
2023/10/10 08:37:09;;;;;;;22.13;11.30;;;;;;;18.93;86.37;101231.06;5056771;28;20052;-80
2023/10/10 08:39:39;;;;;;;18.10;11.20;;;;;;;19.12;85.08;101218.94;5056666;28;20487;-79
2023/10/10 08:42:10;;;;;;;20.27;11.63;;;;;;;19.17;83.52;101224.47;5058214;28;20059;-79
2023/10/10 08:44:39;;;;;;;21.02;11.23;;;;;;;19.15;83.33;101219.34;5056396;28;20045;-79
2023/10/10 08:47:07;;;;;;;16.40;10.73;;;;;;;18.55;84.40;101227.97;5056235;28;20131;-79
2023/10/10 08:49:35;;;;;;;19.17;11.93;;;;;;;18.46;84.53;101226.47;5055526;28;20084;-79
2023/10/10 08:52:03;;;;;;;21.67;11.25;;;;;;;18.81;84.79;101233.47;5055544;28;20045;-80
2023/10/10 08:54:30;;;;;;;25.00;12.45;;;;;;;18.46;85.97;101239.72;5055915;28;20059;-79
2023/10/10 08:57:03;;;;;;;20.45;11.18;;;;;;;19.05;85.43;101234.81;5059512;28;20140;-79
2023/10/10 08:59:30;;;;;;;17.33;10.52;;;;;;;19.40;83.77;101216.97;5053771;28;20514;-79
2023/10/10 09:02:08;;;;;;;19.00;11.00;;;;;;;19.62;83.00;101214.22;5055480;28;20499;-79
2023/10/10 09:04:35;;;;;;;20.80;11.55;;;;;;;19.66;82.66;101212.81;5062490;28;20569;-79
2023/10/10 09:07:08;;;;;;;19.90;11.00;;;;;;;19.18;82.51;101211.00;5054884;28;20080;-78
2023/10/10 09:09:36;;;;;;;;;;;;;;;19.26;83.05;101215.31;5062280;28;20116;-79
2023/10/10 09:12:12;;;;;;;23.02;11.43;;;;;;;18.90;83.58;101216.38;5055089;28;19943;-79
2023/10/10 09:14:39;;;;;;;19.80;11.57;;;;;;;19.08;84.68;101228.31;5054055;28;20422;-79
2023/10/10 09:17:08;;;;;;;19.58;10.40;;;;;;;19.39;84.03;101210.03;5057465;28;20507;-78
2023/10/10 09:19:39;;;;;;;20.83;11.32;;;;;;;19.00;83.70;101205.41;5061722;28;20152;-79
2023/10/10 09:22:12;;;;;;;18.08;11.40;;;;;;;19.38;83.08;101200.44;5057493;28;20067;-79
2023/10/10 09:24:41;;;;;;;19.33;11.65;;;;;;;19.16;82.43;101188.34;5057616;28;20061;-79
2023/10/10 09:27:22;;;;;;;15.95;10.13;;;;;;;19.25;82.79;101202.25;5057003;28;20556;-79
2023/10/10 09:29:54;;;;;;;21.35;10.55;;;;;;;19.25;83.59;101207.56;5057962;28;20495;-79
2023/10/10 09:32:27;;;;;;;23.80;11.27;;;;;;;19.61;83.26;101208.09;5058755;28;20053;-78
2023/10/10 09:34:57;;;;;;;20.23;11.43;;;;;;;19.27;82.73;101201.03;5068832;28;20482;-79
2023/10/10 09:37:30;;;;;;;19.08;10.82;;;;;;;19.28;83.24;101204.50;5077149;28;20049;-79
2023/10/10 09:39:59;;;;;;;19.27;10.60;;;;;;;19.85;82.78;101212.00;5075963;28;20053;-78
2023/10/10 09:42:45;;;;;;;14.60;10.65;;;;;;;19.82;81.97;101209.78;5065171;28;20045;-78
2023/10/10 09:45:27;;;;;;;18.35;9.90;;;;;;;19.82;81.61;101199.16;5065029;28;20056;-78
2023/10/10 09:47:56;;;;;;;16.55;10.10;;;;;;;19.70;82.06;101201.59;5068137;28;20048;-78
2023/10/10 09:50:37;;;;;;;23.10;10.38;;;;;;;19.73;81.86;101195.88;5076309;28;20079;-79
2023/10/10 09:53:19;;;;;;;17.52;10.38;;;;;;;20.03;80.55;101190.16;5076347;28;20040;-79
2023/10/10 09:55:46;;;;;;;21.77;10.88;;;;;;;19.63;81.30;101198.09;5062668;28;20139;-79
2023/10/10 09:58:27;;;;;;;17.63;10.38;;;;;;;19.74;81.15;101189.53;5067503;28;20140;-78
2023/10/10 10:01:04;;;;;;;18.55;10.30;;;;;;;19.88;81.65;101200.97;5056978;28;20053;-79
2023/10/10 10:03:41;;;;;;;21.83;10.63;;;;;;;19.88;81.51;101198.31;5057450;28;20114;-79
2023/10/10 10:06:34;;;;;;;17.55;10.40;;;;;;;20.24;81.61;101203.25;5057098;28;20079;-79
2023/10/10 10:09:18;;;;;;;21.73;10.20;;;;;;;20.20;80.25;101186.88;5058010;28;20136;-78
2023/10/10 10:11:59;;;;;;;18.02;9.48;;;;;;;20.42;79.55;101184.84;5056984;28;20045;-79
2023/10/10 10:14:35;;;;;;;20.95;10.95;;;;;;;20.66;79.40;101190.53;5059278;28;20136;-78
2023/10/10 10:17:14;;;;;;;15.10;8.90;;;;;;;20.85;78.22;101190.44;5061190;28;20045;-78
2023/10/10 10:19:45;;;;;;;17.52;9.65;;;;;;;21.14;76.31;101175.81;5065270;28;20435;-78
2023/10/10 10:22:17;;;;;;;15.60;8.95;;;;;;;21.32;76.79;101180.44;5057280;28;20127;-79
2023/10/10 10:25:20;;;;;;;16.35;7.97;;;;;;;21.32;75.93;101172.44;5065287;28;20049;-79
2023/10/10 10:27:49;;;;;;;17.23;9.35;;;;;;;21.40;75.47;101172.19;5057243;28;20057;-79
2023/10/10 10:32:59;;;;;;;19.33;9.15;;;;;;;21.42;75.44;101182.63;5057567;28;20364;-79
2023/10/10 10:35:36;;;;;;;16.38;8.80;;;;;;;21.29;75.23;101170.22;5065881;28;20059;-79
2023/10/10 10:38:06;;;;;;;12.93;7.95;;;;;;;21.58;75.00;101170.66;5057338;28;20128;-80
2023/10/10 10:40:46;;;;;;;17.30;8.73;;;;;;;21.72;74.28;101169.56;5058252;28;20109;-78
2023/10/10 10:43:32;;;;;;;16.35;8.48;;;;;;;21.40;73.99;101153.56;5066045;28;20068;-79
2023/10/10 10:46:12;;;;;;;16.60;8.23;;;;;;;21.48;73.71;101150.66;5066817;28;20048;-79
2023/10/10 10:48:41;;;;;;;11.90;7.85;;;;;;;21.76;73.50;101147.56;5057401;28;20137;-79
2023/10/10 10:51:23;;;;;;;18.25;8.82;;;;;;;21.76;73.41;101158.22;5056791;28;20132;-79
2023/10/10 10:53:51;;;;;;;17.48;8.20;;;;;;;21.49;72.99;101144.28;5057871;28;20139;-79
2023/10/10 10:59:13;;;;;;;17.45;8.63;;;;;;;21.58;72.01;101136.88;5057707;28;20125;-82
2023/10/10 11:01:42;;;;;;;14.02;7.32;;;;;;;21.94;71.93;101130.84;5069690;28;20053;-83
2023/10/10 11:04:14;;;;;;;15.48;7.78;;;;;;;21.83;72.42;101136.88;5059777;28;20557;-78
2023/10/10 11:06:50;;;;;;;13.60;7.90;;;;;;;21.90;73.13;101142.97;5064407;28;20049;-79
2023/10/10 11:09:28;;;;;;;14.00;7.47;;;;;;;22.00;73.41;101148.63;5064816;28;20063;-78
2023/10/10 11:11:58;;;;;;;15.27;8.18;;;;;;;21.74;72.76;101140.84;5065259;28;20044;-79
2023/10/10 11:14:29;;;;;;;17.38;7.78;;;;;;;21.97;73.98;101154.38;5067739;28;20404;-79
2023/10/10 11:17:00;;;;;;;18.80;7.68;;;;;;;22.29;73.01;101143.66;5057654;28;20521;-79
2023/10/10 11:19:42;;;;;;;15.07;8.13;;;;;;;22.42;72.66;101140.84;5060295;28;20071;-79
2023/10/10 11:22:38;;;;;;;15.57;7.55;;;;;;;22.43;72.56;101123.81;5060713;28;20053;-79
2023/10/10 11:25:04;;;;;;;11.60;8.10;;;;;;;22.54;72.51;101133.75;5061576;28;20060;-79
2023/10/10 11:27:33;;;;;;;15.25;7.18;;;;;;;22.73;70.43;101115.84;5065428;28;20072;-79
2023/10/10 11:30:08;;;;;;;11.90;6.55;;;;;;;22.90;69.79;101108.91;5065076;28;20056;-80
2023/10/10 11:32:47;;;;;;;11.52;6.85;;;;;;;22.99;68.56;101094.22;5064976;28;20490;-79
2023/10/10 11:35:22;;;;;;;15.10;7.18;;;;;;;23.15;68.86;101100.78;5065300;28;20136;-79
2023/10/10 11:37:59;;;;;;;13.70;7.47;;;;;;;23.15;69.40;101100.78;5062456;28;20068;-79
2023/10/10 11:40:32;;;;;;;11.65;6.60;;;;;;;23.13;65.85;101070.81;5056982;28;20045;-79
2023/10/10 11:43:03;;;;;;;11.90;7.18;;;;;;;23.26;64.34;101064.44;5066162;28;20044;-80
2023/10/10 11:45:30;;;;;;;11.00;6.10;;;;;;;23.43;63.27;101063.56;5063733;28;20497;-79
2023/10/10 11:48:00;;;;;;;12.75;6.75;;;;;;;23.48;63.13;101074.38;5060643;28;20053;-79
2023/10/10 11:50:44;;;;;;;11.55;6.50;;;;;;;23.47;62.93;101064.72;5068074;28;20079;-79
2023/10/10 11:53:13;;;;;;;11.45;6.30;;;;;;;23.54;62.22;101061.16;5065777;28;20051;-79
2023/10/10 11:55:41;;;;;;;14.25;6.63;;;;;;;23.63;61.20;101054.44;5070007;28;20057;-80
2023/10/10 11:58:08;;;;;;;18.63;6.60;;;;;;;23.72;61.48;101053.03;5077590;28;20052;-79
2023/10/10 12:00:42;;;;;;;12.13;6.60;;;;;;;23.78;59.58;101042.22;5057469;28;20086;-79
2023/10/10 12:03:10;;;;;;;11.70;5.60;;;;;;;23.91;60.86;101057.22;5056741;28;20045;-79
2023/10/10 12:05:47;;;;;;;12.25;6.22;;;;;;;23.95;59.84;101054.88;5057082;28;20056;-79
2023/10/10 12:08:15;;;;;;;12.55;6.78;;;;;;;23.99;60.55;101059.53;5057432;28;20049;-79
2023/10/10 12:10:47;;;;;;;10.90;5.80;;;;;;;24.07;59.60;101056.50;5064483;28;20057;-80
2023/10/10 12:13:20;;;;;;;9.95;6.40;;;;;;;24.20;59.86;101057.28;5057986;28;20103;-79
2023/10/10 12:15:46;;;;;;;11.70;6.38;;;;;;;24.23;58.44;101049.59;5057414;28;20045;-78
2023/10/10 12:18:15;;;;;;;12.48;6.47;;;;;;;24.36;57.82;101035.19;5057134;28;20073;-79
2023/10/10 12:20:44;;;;;;;12.95;6.80;;;;;;;24.41;56.18;101035.28;5067036;28;20140;-79
2023/10/10 12:23:11;;;;;;;18.33;6.53;;;;;;;24.39;55.79;101018.66;5057386;28;20049;-79
2023/10/10 12:25:40;;;;;;;10.45;6.70;;;;;;;24.47;56.40;101039.69;5074768;28;20065;-79
2023/10/10 12:28:09;;;;;;;16.23;6.65;;;;;;;24.43;56.69;101035.88;5066159;28;20045;-79
2023/10/10 12:30:40;;;;;;;13.20;5.97;;;;;;;24.52;56.56;101031.78;5066786;28;20053;-79
2023/10/10 12:33:07;;;;;;;17.02;7.10;;;;;;;24.55;56.29;101023.28;5066062;28;20045;-79
2023/10/10 12:35:35;;;;;;;15.07;6.40;;;;;;;24.53;56.66;101012.00;5075174;28;20187;-79
2023/10/10 12:38:02;;;;;;;15.88;6.53;;;;;;;24.54;54.75;101024.31;5066027;28;20535;-79
2023/10/10 12:40:29;;;;;;;11.43;6.25;;;;;;;24.65;54.64;101011.91;5074028;28;20053;-79
2023/10/10 12:42:56;;;;;;;10.82;5.82;;;;;;;24.71;54.45;101019.00;5073942;28;20052;-79
2023/10/10 12:45:22;;;;;;;12.60;6.35;;;;;;;24.73;55.74;101017.69;5062729;28;20057;-79
2023/10/10 12:47:49;;;;;;;10.32;6.63;;;;;;;24.78;55.80;101019.66;5061818;28;20044;-79
2023/10/10 12:50:16;;;;;;;15.13;6.50;;;;;;;24.83;55.04;101010.91;5056701;28;20056;-79
2023/10/10 12:52:46;;;;;;;12.20;6.57;;;;;;;24.81;55.99;101020.00;5065145;28;20048;-79
2023/10/10 12:55:13;;;;;;;17.45;6.32;;;;;;;24.86;54.12;100999.72;5063466;28;20052;-79
2023/10/10 12:57:40;;;;;;;10.35;6.50;;;;;;;24.74;53.95;100999.78;5060004;28;20064;-80
2023/10/10 13:02:48;;;;;;;16.73;6.80;;;;;;;24.81;54.66;101000.44;5058463;28;20045;-79
2023/10/10 13:05:16;;;;;;;13.07;6.70;;;;;;;24.83;55.14;100997.53;5060051;28;20467;-79
2023/10/10 13:07:44;;;;;;;14.07;6.53;;;;;;;24.90;54.59;100996.31;5065257;28;20048;-79
2023/10/10 13:10:13;;;;;;;17.70;6.75;;;;;;;24.89;55.23;100997.38;5064466;28;20559;-79
2023/10/10 13:12:45;;;;;;;13.45;6.70;;;;;;;24.81;52.17;100974.50;5068621;28;20049;-79
2023/10/10 13:15:18;;;;;;;19.25;6.30;;;;;;;24.70;53.87;100980.72;5068633;28;20052;-79
2023/10/10 13:17:53;;;;;;;16.15;6.32;;;;;;;24.72;52.12;100973.25;5068392;28;20048;-79
2023/10/10 13:20:21;;;;;;;15.95;6.50;;;;;;;24.69;52.55;100973.75;5060092;28;20521;-79
2023/10/10 13:22:50;;;;;;;15.45;6.65;;;;;;;24.74;52.09;100968.47;5059716;28;20052;-79
2023/10/10 13:25:19;;;;;;;15.95;6.75;;;;;;;24.76;53.46;100971.72;5060281;28;20049;-79
2023/10/10 13:27:47;;;;;;;16.13;7.57;;;;;;;24.79;52.13;100962.41;5060582;28;20060;-80
2023/10/10 13:30:14;;;;;;;12.45;6.10;;;;;;;24.69;51.81;100954.19;5064332;28;20128;-79
2023/10/10 13:32:41;;;;;;;13.52;6.43;;;;;;;24.77;52.08;100959.97;5068104;28;20113;-79
2023/10/10 13:35:09;;;;;;;17.92;7.13;;;;;;;24.88;52.19;100954.78;5058091;28;20204;-78
2023/10/10 13:37:40;;;;;;;14.05;6.40;;;;;;;24.91;52.90;100954.31;5064503;28;20053;-78
2023/10/10 13:40:20;;;;;;;16.05;6.75;;;;;;;24.84;52.59;100956.34;5056585;28;20056;-78
2023/10/10 13:42:48;;;;;;;11.60;6.53;;;;;;;24.80;52.13;100942.63;5065264;28;20044;-78
2023/10/10 13:45:19;;;;;;;14.55;6.88;;;;;;;24.73;52.04;100939.28;5061314;28;20073;-78
2023/10/10 13:47:48;;;;;;;13.23;6.65;;;;;;;24.87;52.15;100942.47;5065782;28;20057;-79
2023/10/10 13:53:10;;;;;;;11.82;7.03;;;;;;;24.74;51.77;100932.88;5099758;27;20376;-78
2023/10/10 13:55:38;;;;;;;15.70;6.75;;;;;;;24.73;52.48;100937.41;5095176;28;20056;-78
2023/10/10 13:58:07;;;;;;;14.55;6.68;;;;;;;24.70;52.21;100929.88;5104536;28;20149;-78
2023/10/10 14:00:36;;;;;;;15.68;7.43;;;;;;;24.70;52.97;100939.75;5084657;28;20059;-79
2023/10/10 14:03:04;;;;;;;18.83;7.25;;;;;;;24.81;51.62;100934.34;5101498;28;20501;-78
2023/10/10 14:06:03;;;;;;;14.80;6.75;;;;;;;24.77;51.25;100927.03;5098003;22;20075;-84
2023/10/10 14:08:38;;;;;;;16.10;7.13;;;;;;;24.81;51.88;100928.19;5065642;28;20115;-84
2023/10/10 14:11:06;;;;;;;16.42;7.40;;;;;;;24.83;51.03;100919.91;5049441;28;20072;-83
2023/10/10 14:13:38;;;;;;;12.70;6.95;;;;;;;24.75;51.53;100919.25;5051500;28;20060;-83
2023/10/10 14:16:06;;;;;;;15.85;7.25;;;;;;;24.69;52.11;100904.16;5044629;28;20057;-84
2023/10/10 14:18:42;;;;;;;13.00;7.10;;;;;;;24.61;52.28;100909.91;5044900;28;20057;-85
2023/10/10 14:21:12;;;;;;;13.57;7.40;;;;;;;24.68;52.82;100923.94;5045862;28;20045;-83
2023/10/10 14:24:13;;;;;;;12.68;7.15;;;;;;;24.78;52.96;100928.66;5056020;28;20045;-84
2023/10/10 14:32:41;;;;;;;13.05;6.95;;;;;;;24.48;52.87;100899.53;5047708;28;20057;-86
2023/10/10 14:35:16;;;;;;;11.98;6.60;;;;;;;24.52;52.58;100906.03;5048837;28;20054;-85
2023/10/10 14:37:46;;;;;;;14.40;6.65;;;;;;;24.43;52.63;100904.81;5054854;28;20045;-85
2023/10/10 14:40:17;;;;;;;13.63;7.40;;;;;;;24.30;52.59;100892.53;5049958;28;20049;-83
2023/10/10 14:42:52;;;;;;;12.55;7.70;;;;;;;24.24;52.62;100884.63;5056144;28;20498;-85
2023/10/10 14:45:28;;;;;;;16.77;7.20;;;;;;;24.43;52.22;100888.75;5055509;28;20049;-85
2023/10/10 14:48:08;;;;;;;17.10;6.97;;;;;;;24.39;53.32;100904.47;5047077;28;20122;-84
2023/10/10 14:50:42;;;;;;;18.73;7.57;;;;;;;24.35;52.15;100887.28;5047055;28;20140;-85
2023/10/10 14:53:15;;;;;;;16.63;7.18;;;;;;;24.39;52.58;100892.97;5057764;28;20059;-84
2023/10/10 14:55:47;;;;;;;10.88;7.13;;;;;;;24.28;53.16;100896.50;5055462;28;20057;-85
2023/10/10 15:02:15;;;;;;;13.88;6.53;;;;;;;24.10;54.08;100890.25;5041835;28;20068;-84
2023/10/10 15:05:13;;;;;;;16.15;7.30;;;;;;;24.05;54.37;100898.22;4980402;28;20090;-84
2023/10/10 15:07:44;;;;;;;15.52;6.93;;;;;;;23.90;54.51;100889.88;4975898;28;20062;-84
2023/10/10 15:14:06;;;;;;;15.55;7.03;;;;;;;23.76;55.32;100867.16;4975921;28;20150;-84
2023/10/10 15:16:41;;;;;;;10.32;6.22;;;;;;;23.77;55.67;100876.78;5028350;28;20050;-85
2023/10/10 15:19:17;;;;;;;12.63;6.55;;;;;;;23.85;55.94;100887.13;5037618;28;20046;-85
2023/10/10 15:22:16;;;;;;;17.17;7.05;;;;;;;23.78;56.76;100899.78;5039111;28;20050;-84
2023/10/10 15:25:01;;;;;;;16.50;6.65;;;;;;;23.74;57.02;100901.31;5033951;28;20192;-85
2023/10/10 15:27:29;;;;;;;12.80;6.80;;;;;;;23.62;57.03;100889.84;5042312;28;20088;-83
2023/10/10 15:30:37;;;;;;;15.50;7.13;;;;;;;23.73;57.13;100894.34;5042126;28;20057;-85
2023/10/10 15:33:17;;;;;;;14.10;6.82;;;;;;;23.66;57.87;100894.47;5041332;28;20072;-85
2023/10/10 15:36:11;;;;;;;11.23;6.47;;;;;;;23.52;58.43;100887.75;5040203;28;20053;-85
2023/10/10 15:39:05;;;;;;;10.88;6.78;;;;;;;23.55;58.98;100907.88;5046210;28;20076;-85